clima

HORA PREDICCIÓN TEMPERATURA VIENTO HUMEDAD
2020-09-23 00:00:00 Despejado 5 2.98 0.88
2020-09-23 01:00:00 Despejado 5 2.79 0.89
2020-09-23 02:00:00 Despejado 5 2.57 0.9
2020-09-23 03:00:00 Despejado 5 2.44 0.91
2020-09-23 04:00:00 Despejado 5 2.56 0.91
2020-09-23 05:00:00 Despejado 5 2.79 0.91
2020-09-23 06:00:00 Despejado 5 2.94 0.91
2020-09-23 07:00:00 Despejado 5 2.68 0.91
2020-09-23 08:00:00 Despejado 5 2.32 0.91
2020-09-23 09:00:00 Despejado 6 2.55 0.9
2020-09-23 10:00:00 Despejado 8 3.87 0.86
2020-09-23 11:00:00 Despejado 9 5.77 0.79
2020-09-23 12:00:00 Despejado 11 7.31 0.72
2020-09-23 13:00:00 Despejado 12 8.23 0.67
2020-09-23 14:00:00 Despejado 13 8.81 0.65
2020-09-23 15:00:00 Parcialmente nublado 13 9.16 0.64
2020-09-23 16:00:00 Parcialmente nublado 13 9.23 0.64
2020-09-23 17:00:00 Mayormente nublado 12 9.05 0.65
2020-09-23 18:00:00 Nublado 11 8.79 0.68
2020-09-23 19:00:00 Nublado 10 8.46 0.71
2020-09-23 20:00:00 Nublado 9 8.08 0.75
2020-09-23 21:00:00 Nublado 8 7.78 0.78
2020-09-23 22:00:00 Nublado 7 7.71 0.79
2020-09-23 23:00:00 Mayormente nublado 7 7.73 0.8

Mesón de informaciones

(56 65) 229 4161

Horario

24 horas del día.

Edificio Terminal de pasajeros,

Aeropuerto El Tepual Puerto Montt

Región de los Lagos, Chile.